Aviation Digital Data Service (ADDS)

Output produced by METARs form (1018 UTC 23 March 2017)
found at http://aviationweather.gov/adds/metars/
 
KDTW 230903Z 2309/2412 VRB03KT P6SM SCT250 
     FM231500 12007KT P6SM BKN200 
     FM231800 12010KT P6SM OVC100 
     FM240000 14006KT P6SM OVC060 
     FM240400 16008KT P6SM -RA OVC045 WS020/22040KT 
     FM240800 20010KT P6SM SCT015 OVC030 WS020/23045KT